Time;durP1;ratioP1;P1;durP2;ratioP2;P2;SDS_P1;SDS_P2;PMS_P1;PMS_P2;Temp;Humidity;BMP_temperature;BMP_pressure;BME280_temperature;BME280_humidity;BME280_pressure;Samples;Min_cycle;Max_cycle;Signal;HPM_P1;HPM_P2
2022/02/24 00:00:24;;;;;;;21.53;20.63;;;20.70;58.30;;;;;;5043616;28;20449;-42
2022/02/24 00:02:51;;;;;;;21.87;20.87;;;20.70;58.60;;;;;;5031613;28;20850;-42
2022/02/24 00:05:18;;;;;;;21.30;20.40;;;20.60;59.20;;;;;;5034943;28;20477;-43
2022/02/24 00:07:45;;;;;;;20.97;20.07;;;20.60;58.90;;;;;;5034948;28;20476;-41
2022/02/24 00:10:14;;;;;;;20.77;19.87;;;20.50;59.10;;;;;;5040461;28;20452;-45
2022/02/24 00:12:41;;;;;;;21.10;20.10;;;20.50;59.30;;;;;;5054993;28;20445;-43
2022/02/24 00:15:09;;;;;;;21.93;20.90;;;20.40;59.40;;;;;;5054910;28;20452;-42
2022/02/24 00:17:38;;;;;;;21.03;20.13;;;20.40;59.50;;;;;;5054730;28;20819;-41
2022/02/24 00:20:06;;;;;;;21.40;20.40;;;20.30;59.70;;;;;;5036213;28;20455;-42
2022/02/24 00:22:33;;;;;;;21.63;20.63;;;20.30;60.00;;;;;;5035015;28;20506;-42
2022/02/24 00:25:00;;;;;;;21.43;20.43;;;20.20;60.10;;;;;;5034797;28;20942;-41
2022/02/24 00:27:27;;;;;;;22.00;21.00;;;20.20;60.40;;;;;;5035751;28;20491;-41
2022/02/24 00:29:54;;;;;;;21.40;20.50;;;20.10;60.50;;;;;;5042005;28;20458;-42
2022/02/24 00:32:20;;;;;;;21.40;20.50;;;20.10;61.10;;;;;;5034750;28;20449;-41
2022/02/24 00:34:49;;;;;;;22.17;21.17;;;20.00;61.10;;;;;;5034659;28;20448;-41
2022/02/24 00:37:16;;;;;;;21.90;20.90;;;20.00;61.40;;;;;;5034632;28;20471;-44
2022/02/24 00:39:43;;;;;;;21.70;20.70;;;19.90;61.80;;;;;;5048628;28;20444;-42
2022/02/24 00:42:10;;;;;;;21.77;20.77;;;19.90;62.00;;;;;;5052802;28;20440;-41
2022/02/24 00:44:37;;;;;;;21.47;20.50;;;19.80;62.30;;;;;;5053999;28;20487;-42
2022/02/24 00:47:04;;;;;;;22.60;21.43;;;19.80;62.60;;;;;;5054413;28;20452;-41
2022/02/24 00:49:31;;;;;;;21.57;20.57;;;19.80;62.80;;;;;;5053944;28;20472;-43
2022/02/24 00:51:59;;;;;;;22.37;21.37;;;19.70;63.00;;;;;;5041544;28;20456;-44
2022/02/24 00:54:26;;;;;;;21.60;20.60;;;19.70;63.20;;;;;;5034207;28;20957;-42
2022/02/24 00:56:53;;;;;;;21.50;20.40;;;19.70;63.30;;;;;;5049485;28;20802;-44
2022/02/24 00:59:19;;;;;;;21.97;20.97;;;19.70;63.60;;;;;;5054112;28;20471;-41
2022/02/24 01:01:48;;;;;;;21.80;20.80;;;19.60;63.70;;;;;;5053957;28;20536;-41
2022/02/24 01:04:15;;;;;;;21.63;20.67;;;19.60;64.10;;;;;;5053627;28;20572;-43
2022/02/24 01:06:42;;;;;;;21.53;20.53;;;19.70;64.50;;;;;;5041260;28;20457;-42
2022/02/24 01:09:10;;;;;;;21.77;20.77;;;19.60;64.40;;;;;;5033576;28;20469;-41
2022/02/24 01:11:37;;;;;;;21.83;20.83;;;19.70;64.60;;;;;;5033637;28;20453;-41
2022/02/24 01:14:04;;;;;;;21.40;20.40;;;19.60;64.60;;;;;;5033622;28;20445;-41
2022/02/24 01:16:30;;;;;;;21.37;20.47;;;19.60;64.90;;;;;;5033838;28;20445;-42
2022/02/24 01:18:58;;;;;;;21.57;20.67;;;19.50;65.60;;;;;;5033315;28;20465;-42
2022/02/24 01:21:25;;;;;;;22.00;21.10;;;19.50;65.80;;;;;;5045873;28;20499;-40
2022/02/24 01:23:51;;;;;;;21.60;20.70;;;19.50;65.90;;;;;;5053347;28;20495;-41
2022/02/24 01:26:19;;;;;;;21.30;20.40;;;19.50;66.00;;;;;;5044528;28;20438;-41
2022/02/24 01:28:46;;;;;;;21.50;20.40;;;19.50;66.00;;;;;;5034263;28;20476;-41
2022/02/24 01:31:13;;;;;;;21.50;20.50;;;19.50;66.10;;;;;;5033678;28;20449;-41
2022/02/24 01:33:40;;;;;;;20.97;20.07;;;19.50;66.00;;;;;;5033256;28;20453;-40
2022/02/24 01:36:07;;;;;;;22.00;21.00;;;19.40;66.30;;;;;;5039983;28;20475;-42
2022/02/24 01:38:34;;;;;;;21.40;20.40;;;19.40;66.60;;;;;;5052824;28;20495;-42
2022/02/24 01:41:01;;;;;;;21.50;20.60;;;19.40;66.90;;;;;;5053073;28;20445;-41
2022/02/24 01:43:29;;;;;;;21.80;20.80;;;19.30;66.70;;;;;;5052875;28;20491;-42
2022/02/24 01:45:55;;;;;;;21.90;20.90;;;19.30;67.20;;;;;;5047737;28;20472;-41
2022/02/24 01:48:22;;;;;;;21.50;20.50;;;19.30;67.50;;;;;;5041865;28;20539;-41
2022/02/24 01:50:49;;;;;;;22.13;21.10;;;19.20;68.10;;;;;;5052866;28;20448;-41
2022/02/24 01:53:16;;;;;;;21.70;20.60;;;19.20;68.50;;;;;;5052786;28;20455;-41
2022/02/24 01:55:43;;;;;;;21.53;20.53;;;19.20;68.80;;;;;;5049498;28;20464;-41
2022/02/24 01:58:11;;;;;;;21.60;20.60;;;19.20;69.10;;;;;;5032639;28;20476;-41
2022/02/24 02:00:41;;;;;;;21.63;20.70;;;19.20;69.20;;;;;;5032675;28;20453;-41
2022/02/24 02:03:08;;;;;;;20.93;20.03;;;19.20;69.60;;;;;;5032643;28;20449;-41
2022/02/24 02:05:35;;;;;;;21.37;20.47;;;19.20;70.00;;;;;;5034144;28;20446;-40
2022/02/24 02:08:03;;;;;;;21.13;20.17;;;19.10;70.00;;;;;;5052242;28;20464;-41
2022/02/24 02:10:30;;;;;;;21.60;20.70;;;19.20;70.30;;;;;;5052402;28;20452;-40
2022/02/24 02:12:57;;;;;;;21.53;20.63;;;19.20;70.40;;;;;;5052486;28;20452;-40
2022/02/24 02:15:24;;;;;;;21.00;20.10;;;19.10;70.70;;;;;;5052080;28;20829;-41
2022/02/24 02:17:53;;;;;;;20.93;20.03;;;19.10;71.00;;;;;;5012557;28;20489;-41
2022/02/24 02:20:20;;;;;;;21.07;20.17;;;19.10;71.20;;;;;;5012794;28;20454;-41
2022/02/24 02:22:51;;;;;;;21.80;20.70;;;19.10;71.30;;;;;;5012716;28;20458;-40
2022/02/24 02:25:20;;;;;;;21.20;20.10;;;19.10;71.70;;;;;;5037785;28;20997;-41
2022/02/24 02:27:48;;;;;;;21.23;20.33;;;19.00;71.80;;;;;;5051907;28;20472;-41
2022/02/24 02:30:16;;;;;;;21.87;20.87;;;19.00;71.90;;;;;;5035699;28;20500;-41
2022/02/24 02:32:43;;;;;;;21.73;20.73;;;19.00;72.10;;;;;;5032278;28;20779;-43
2022/02/24 02:35:11;;;;;;;21.50;20.50;;;19.00;72.30;;;;;;5043441;28;20448;-41
2022/02/24 02:37:38;;;;;;;21.30;20.40;;;19.00;72.50;;;;;;5051901;28;20472;-42
2022/02/24 02:40:07;;;;;;;20.60;19.70;;;19.00;72.50;;;;;;5051707;28;20787;-41
2022/02/24 02:42:34;;;;;;;21.07;20.13;;;18.90;72.60;;;;;;5051938;28;20455;-41
2022/02/24 02:45:02;;;;;;;20.80;20.00;;;18.90;72.90;;;;;;5041658;28;20481;-41
2022/02/24 02:47:29;;;;;;;21.43;20.53;;;18.90;73.10;;;;;;5032000;28;20473;-41
2022/02/24 02:49:55;;;;;;;21.17;20.13;;;18.90;73.40;;;;;;5031824;28;20850;-41
2022/02/24 02:52:22;;;;;;;21.33;20.33;;;18.90;73.60;;;;;;5032980;28;20453;-41
2022/02/24 02:54:51;;;;;;;21.20;20.30;;;18.90;73.60;;;;;;5031897;28;20445;-41
2022/02/24 02:57:19;;;;;;;21.60;20.70;;;18.90;73.80;;;;;;5031657;28;20448;-40
2022/02/24 02:59:47;;;;;;;21.07;20.07;;;18.90;73.90;;;;;;5039208;28;20444;-42
2022/02/24 03:02:13;;;;;;;21.30;20.20;;;18.90;74.10;;;;;;5051842;28;20466;-40
2022/02/24 03:04:40;;;;;;;20.97;20.00;;;18.90;74.10;;;;;;5051539;28;20484;-41
2022/02/24 03:07:07;;;;;;;21.23;20.33;;;18.90;74.30;;;;;;5051701;28;20444;-42
2022/02/24 03:09:33;;;;;;;21.37;20.47;;;18.80;74.50;;;;;;5045423;28;20452;-41
2022/02/24 03:12:00;;;;;;;21.60;20.60;;;18.80;75.30;;;;;;5031667;28;20456;-41
2022/02/24 03:14:28;;;;;;;21.50;20.50;;;18.80;74.70;;;;;;5031758;28;20448;-42
2022/02/24 03:16:55;;;;;;;21.27;20.37;;;18.80;74.80;;;;;;5031717;28;20821;-41
2022/02/24 03:19:22;;;;;;;21.23;20.33;;;18.80;75.00;;;;;;5035110;28;20568;-42
2022/02/24 03:21:48;;;;;;;20.90;19.90;;;18.80;75.10;;;;;;5051691;28;20444;-42
2022/02/24 03:24:15;;;;;;;20.70;19.70;;;18.80;75.40;;;;;;5051719;28;20479;-41
2022/02/24 03:26:42;;;;;;;21.33;20.17;;;18.80;75.40;;;;;;5051456;28;20467;-41
2022/02/24 03:29:08;;;;;;;22.23;21.23;;;18.80;75.40;;;;;;5035214;28;20473;-42
2022/02/24 03:31:37;;;;;;;21.10;20.20;;;18.80;75.40;;;;;;5031556;28;20456;-41
2022/02/24 03:34:03;;;;;;;21.37;20.37;;;18.70;75.60;;;;;;5031479;28;20452;-40
2022/02/24 03:36:30;;;;;;;20.83;19.93;;;18.70;75.70;;;;;;5031520;28;20456;-42
2022/02/24 03:38:57;;;;;;;20.83;19.93;;;18.70;76.00;;;;;;5033876;28;20560;-41
2022/02/24 03:41:24;;;;;;;21.40;20.50;;;18.80;76.20;;;;;;5052649;28;20444;-41
2022/02/24 03:43:53;;;;;;;21.30;20.30;;;18.70;76.30;;;;;;5055271;28;20444;-41
2022/02/24 03:46:20;;;;;;;21.10;20.10;;;18.70;76.50;;;;;;5055330;28;20514;-41
2022/02/24 03:48:48;;;;;;;21.87;20.77;;;18.60;76.70;;;;;;5042344;28;20492;-43
2022/02/24 03:51:15;;;;;;;22.43;21.43;;;18.70;77.00;;;;;;5035260;28;20460;-41
2022/02/24 03:53:42;;;;;;;23.53;22.43;;;18.70;76.90;;;;;;5035153;28;20840;-41
2022/02/24 03:56:08;;;;;;;21.60;20.60;;;18.70;77.00;;;;;;5035203;28;20452;-41
2022/02/24 03:58:35;;;;;;;21.40;20.50;;;18.70;77.20;;;;;;5038872;28;20974;-42
2022/02/24 04:01:02;;;;;;;22.03;20.93;;;18.60;77.50;;;;;;5049917;28;20814;-44
2022/02/24 04:03:29;;;;;;;21.37;20.20;;;18.60;77.70;;;;;;5055074;28;20472;-40
2022/02/24 04:05:57;;;;;;;22.00;21.00;;;18.60;77.80;;;;;;5054751;28;20480;-41
2022/02/24 04:08:24;;;;;;;21.63;20.63;;;18.50;78.30;;;;;;5045493;28;20469;-41
2022/02/24 04:10:51;;;;;;;21.27;20.37;;;18.50;79.00;;;;;;5034850;28;20455;-46
2022/02/24 04:13:17;;;;;;;21.43;20.53;;;18.50;79.30;;;;;;5034833;28;20445;-42
2022/02/24 04:15:44;;;;;;;21.10;20.20;;;18.50;79.60;;;;;;5034839;28;20448;-41
2022/02/24 04:18:11;;;;;;;21.30;20.30;;;18.50;80.00;;;;;;5041179;28;20980;-41
2022/02/24 04:20:38;;;;;;;20.60;19.70;;;18.50;80.10;;;;;;5054547;28;20452;-41
2022/02/24 04:23:06;;;;;;;21.30;20.30;;;18.50;80.40;;;;;;5054493;28;20852;-42
2022/02/24 04:25:32;;;;;;;22.07;20.90;;;18.50;80.50;;;;;;5054455;28;20476;-41
2022/02/24 04:27:59;;;;;;;21.10;20.20;;;18.50;80.50;;;;;;5049097;28;21014;-41
2022/02/24 04:30:26;;;;;;;21.00;20.10;;;18.50;80.80;;;;;;5034584;28;20445;-42
2022/02/24 04:32:53;;;;;;;21.37;20.37;;;18.50;80.80;;;;;;5034536;28;20445;-41
2022/02/24 04:35:19;;;;;;;20.13;19.30;;;18.40;81.30;;;;;;5034483;28;20804;-42
2022/02/24 04:37:46;;;;;;;20.00;19.20;;;18.40;81.60;;;;;;5050645;28;20469;-42
2022/02/24 04:40:16;;;;;;;20.87;19.97;;;18.40;81.80;;;;;;5049949;28;21138;-42
2022/02/24 04:42:43;;;;;;;21.20;20.30;;;18.40;82.00;;;;;;5034312;28;20521;-41
2022/02/24 04:45:11;;;;;;;20.70;19.80;;;18.40;82.40;;;;;;5034235;28;20817;-42
2022/02/24 04:47:38;;;;;;;20.87;19.97;;;18.40;82.80;;;;;;5043433;28;20481;-41
2022/02/24 04:50:08;;;;;;;20.53;19.63;;;18.40;83.20;;;;;;5047572;28;20976;-42
2022/02/24 04:52:35;;;;;;;20.10;19.30;;;18.30;83.50;;;;;;5054023;28;20999;-43
2022/02/24 04:55:02;;;;;;;20.43;19.53;;;18.40;83.60;;;;;;5053925;28;20448;-42
2022/02/24 04:57:30;;;;;;;21.30;20.40;;;18.40;83.30;;;;;;5039691;28;20477;-42
2022/02/24 04:59:57;;;;;;;20.60;19.70;;;18.40;83.70;;;;;;5033813;28;20789;-42
2022/02/24 05:02:23;;;;;;;20.80;19.90;;;18.40;83.90;;;;;;5033917;28;20930;-41
2022/02/24 05:04:50;;;;;;;20.80;19.90;;;18.40;84.10;;;;;;5039250;28;20480;-41
2022/02/24 05:07:17;;;;;;;20.50;19.60;;;18.40;83.90;;;;;;5053558;28;20450;-41
2022/02/24 05:09:44;;;;;;;20.80;19.60;;;18.30;84.30;;;;;;5053504;28;20953;-41
2022/02/24 05:12:11;;;;;;;20.90;19.90;;;18.30;84.90;;;;;;5056347;28;20455;-44
2022/02/24 05:14:39;;;;;;;20.53;19.63;;;18.30;85.20;;;;;;5052896;28;20809;-43
2022/02/24 05:17:06;;;;;;;20.60;19.60;;;18.40;85.00;;;;;;5041918;28;20448;-41
2022/02/24 05:19:32;;;;;;;20.70;19.80;;;18.40;85.00;;;;;;5053380;28;21060;-42
2022/02/24 05:21:59;;;;;;;20.73;19.73;;;18.40;85.10;;;;;;5053366;28;20456;-42
2022/02/24 05:24:26;;;;;;;21.40;20.40;;;18.40;85.00;;;;;;5049029;28;20453;-42
2022/02/24 05:26:52;;;;;;;20.70;19.80;;;18.30;85.40;;;;;;5033514;28;20449;-42
2022/02/24 05:29:19;;;;;;;21.17;20.17;;;18.40;85.60;;;;;;5033200;28;20839;-41
2022/02/24 05:31:47;;;;;;;20.50;19.60;;;18.30;85.60;;;;;;5033491;28;20949;-41
2022/02/24 05:34:14;;;;;;;20.87;19.87;;;18.30;85.90;;;;;;5035747;28;20454;-41
2022/02/24 05:36:43;;;;;;;21.23;20.30;;;18.30;86.40;;;;;;5053088;28;20453;-43
2022/02/24 05:39:10;;;;;;;21.60;20.60;;;18.30;86.40;;;;;;5052906;28;21032;-41
2022/02/24 05:41:36;;;;;;;20.80;19.83;;;18.30;86.30;;;;;;5052988;28;20460;-42
2022/02/24 05:44:04;;;;;;;21.03;20.03;;;18.30;86.70;;;;;;5038157;28;20805;-41
2022/02/24 05:46:30;;;;;;;21.47;20.37;;;18.30;86.70;;;;;;5033075;28;20496;-41
2022/02/24 05:48:59;;;;;;;21.20;20.20;;;18.30;86.20;;;;;;5032819;28;20474;-42
2022/02/24 05:51:25;;;;;;;20.93;19.93;;;18.40;87.70;;;;;;5032997;28;20445;-41
2022/02/24 05:53:52;;;;;;;21.17;20.17;;;18.70;87.60;;;;;;5045623;28;20511;-40
2022/02/24 05:56:19;;;;;;;21.03;20.03;;;19.10;84.30;;;;;;5052753;28;20444;-42
2022/02/24 05:58:45;;;;;;;21.47;20.47;;;19.30;81.60;;;;;;5052386;28;20481;-43
2022/02/24 06:01:12;;;;;;;21.77;20.73;;;19.50;80.10;;;;;;5052339;28;20472;-43
2022/02/24 06:03:39;;;;;;;21.80;20.70;;;19.60;78.30;;;;;;5041578;28;20461;-41
2022/02/24 06:06:07;;;;;;;21.87;20.70;;;19.70;76.70;;;;;;5032565;28;20481;-42
2022/02/24 06:08:34;;;;;;;21.50;20.50;;;19.80;75.50;;;;;;5032470;28;20473;-43
2022/02/24 06:11:01;;;;;;;21.57;20.47;;;19.90;74.60;;;;;;5032652;28;20452;-42
2022/02/24 06:13:28;;;;;;;21.63;20.63;;;19.90;73.30;;;;;;5041246;28;20456;-41
2022/02/24 06:15:55;;;;;;;22.23;21.33;;;20.00;72.30;;;;;;5052460;28;20439;-42
2022/02/24 06:18:22;;;;;;;21.30;20.43;;;20.10;71.60;;;;;;5052183;28;21004;-41
2022/02/24 06:20:48;;;;;;;21.20;20.30;;;20.10;70.30;;;;;;5052228;28;20452;-41
2022/02/24 06:23:16;;;;;;;28.20;27.00;;;20.10;69.70;;;;;;5045048;28;20790;-41
2022/02/24 06:25:43;;;;;;;27.07;25.87;;;20.20;69.00;;;;;;5032415;28;21041;-41
2022/02/24 06:28:10;;;;;;;25.37;24.27;;;20.20;68.50;;;;;;5032086;28;20469;-41
2022/02/24 06:30:37;;;;;;;27.90;26.70;;;20.20;67.50;;;;;;5032285;28;20456;-41
2022/02/24 06:33:04;;;;;;;29.90;28.70;;;20.20;66.90;;;;;;5033277;28;20528;-41
2022/02/24 06:35:31;;;;;;;31.23;30.03;;;20.30;66.50;;;;;;5039771;28;20956;-42
2022/02/24 06:38:01;;;;;;;26.20;25.17;;;20.30;66.20;;;;;;5039956;28;20468;-41
2022/02/24 06:40:29;;;;;;;25.90;24.90;;;20.30;66.10;;;;;;5039873;28;20503;-42
2022/02/24 06:42:57;;;;;;;27.63;26.43;;;20.30;65.80;;;;;;5037210;28;20452;-45
2022/02/24 06:45:24;;;;;;;28.57;27.00;;;20.30;65.90;;;;;;5020431;28;20602;-43
2022/02/24 06:47:51;;;;;;;26.90;25.70;;;20.40;66.60;;;;;;5019950;28;20829;-42
2022/02/24 06:50:18;;;;;;;30.30;28.80;;;20.40;69.30;;;;;;5020131;28;20453;-42
2022/02/24 06:52:45;;;;;;;28.57;26.90;;;20.40;71.20;;;;;;5021007;28;20449;-44
2022/02/24 06:55:12;;;;;;;32.20;30.03;;;20.50;75.10;;;;;;5022784;28;20461;-42
2022/02/24 06:57:43;;;;;;;35.20;33.30;;;20.50;77.00;;;;;;5046087;22;20588;-42
2022/02/24 07:00:11;;;;;;;33.10;31.40;;;20.50;80.00;;;;;;5039875;28;20436;-41
2022/02/24 07:02:38;;;;;;;32.00;30.20;;;20.60;80.20;;;;;;5039988;28;20440;-42
2022/02/24 07:05:05;;;;;;;35.03;33.10;;;20.50;80.30;;;;;;5039405;28;21035;-41
2022/02/24 07:07:34;;;;;;;33.70;31.80;;;20.60;80.70;;;;;;5040928;28;21303;-41
2022/02/24 07:10:02;;;;;;;36.53;34.63;;;20.60;78.30;;;;;;5059447;28;20964;-41
2022/02/24 07:12:29;;;;;;;33.30;31.70;;;20.60;79.00;;;;;;5057462;28;20493;-41
2022/02/24 07:14:57;;;;;;;31.03;29.40;;;20.60;78.60;;;;;;5059016;28;20882;-42
2022/02/24 07:17:24;;;;;;;29.33;27.93;;;20.60;77.20;;;;;;5059404;28;21132;-42
2022/02/24 07:19:51;;;;;;;34.63;32.43;;;20.60;76.70;;;;;;5059226;28;20907;-46
2022/02/24 07:22:18;;;;;;;34.43;32.63;;;20.60;77.10;;;;;;5048709;28;20789;-41
2022/02/24 07:24:45;;;;;;;31.93;30.23;;;20.60;77.30;;;;;;5039771;28;20463;-41
2022/02/24 07:27:11;;;;;;;33.83;32.00;;;20.60;77.10;;;;;;5047825;28;20488;-42
2022/02/24 07:29:38;;;;;;;32.43;30.73;;;20.60;76.20;;;;;;5054288;28;20459;-43
2022/02/24 07:32:07;;;;;;;31.23;29.73;;;20.60;76.00;;;;;;5051325;28;20448;-41
2022/02/24 07:34:34;;;;;;;34.33;32.57;;;20.60;76.00;;;;;;5051348;28;20820;-41
2022/02/24 07:37:01;;;;;;;33.90;32.27;;;20.60;74.80;;;;;;5051288;28;20445;-41
2022/02/24 07:39:28;;;;;;;33.80;32.20;;;20.50;74.90;;;;;;5050760;28;20495;-41
2022/02/24 07:41:54;;;;;;;31.80;30.30;;;20.50;74.50;;;;;;5051356;28;20452;-41
2022/02/24 07:44:21;;;;;;;38.00;36.30;;;20.50;73.80;;;;;;5051265;28;20798;-40
2022/02/24 07:46:48;;;;;;;31.80;30.20;;;20.50;73.10;;;;;;5051148;28;20480;-41
2022/02/24 07:49:16;;;;;;;32.47;30.83;;;20.40;73.20;;;;;;5050990;28;20880;-41
2022/02/24 07:51:47;;;;;;;28.83;27.43;;;20.30;72.90;;;;;;5051124;28;20445;-41
2022/02/24 07:54:13;;;;;;;32.03;30.47;;;20.20;73.10;;;;;;5051197;28;20441;-41
2022/02/24 07:56:40;;;;;;;31.23;29.60;;;20.20;72.90;;;;;;5051137;28;20453;-41
2022/02/24 07:59:07;;;;;;;33.93;32.23;;;20.10;73.10;;;;;;5050723;28;20480;-41
2022/02/24 08:01:33;;;;;;;31.90;30.43;;;20.10;72.30;;;;;;5051132;28;20444;-41
2022/02/24 08:04:00;;;;;;;34.17;32.67;;;20.00;71.50;;;;;;5051025;28;20471;-41
2022/02/24 08:06:28;;;;;;;30.30;29.00;;;20.00;71.60;;;;;;5051105;28;20472;-41
2022/02/24 08:08:55;;;;;;;33.50;31.90;;;20.00;72.00;;;;;;5050655;28;20472;-41
2022/02/24 08:11:22;;;;;;;35.27;33.80;;;19.90;71.90;;;;;;5050890;28;20452;-41
2022/02/24 08:13:48;;;;;;;29.53;28.10;;;19.90;71.50;;;;;;5050927;28;20448;-41
2022/02/24 08:16:15;;;;;;;28.00;26.60;;;19.90;71.80;;;;;;5050939;28;20942;-41
2022/02/24 08:18:42;;;;;;;28.30;26.70;;;19.90;71.60;;;;;;5050647;28;20472;-41
2022/02/24 08:21:09;;;;;;;29.33;27.67;;;19.80;70.70;;;;;;5050919;28;20444;-41
2022/02/24 08:23:37;;;;;;;26.80;25.43;;;19.80;70.60;;;;;;5051065;28;20836;-41
2022/02/24 08:26:04;;;;;;;27.07;25.77;;;19.70;71.50;;;;;;5053949;28;20841;-40
2022/02/24 08:28:31;;;;;;;30.20;28.80;;;19.70;70.90;;;;;;5054180;28;20518;-41
2022/02/24 08:30:57;;;;;;;34.07;32.00;;;19.60;70.90;;;;;;5054448;28;20448;-41
2022/02/24 08:33:24;;;;;;;31.87;30.37;;;19.60;70.70;;;;;;5054543;28;20440;-40
2022/02/24 08:35:51;;;;;;;29.63;28.23;;;19.60;70.90;;;;;;5054241;28;20445;-41
2022/02/24 08:38:18;;;;;;;29.43;28.10;;;19.50;70.70;;;;;;5053905;28;20471;-41
2022/02/24 08:40:46;;;;;;;35.00;33.43;;;19.50;70.00;;;;;;5054160;28;20459;-41
2022/02/24 08:43:13;;;;;;;34.83;33.17;;;19.50;69.60;;;;;;5054215;28;20448;-42
2022/02/24 08:45:40;;;;;;;34.37;32.20;;;19.40;69.60;;;;;;5054019;28;20472;-41
2022/02/24 08:48:07;;;;;;;29.10;27.80;;;19.40;69.40;;;;;;5053798;28;20495;-40
2022/02/24 08:50:34;;;;;;;35.30;33.70;;;19.40;69.30;;;;;;5054088;28;20808;-41
2022/02/24 08:53:01;;;;;;;30.23;28.83;;;19.40;69.30;;;;;;5054014;28;20574;-41
2022/02/24 08:55:28;;;;;;;31.07;29.40;;;19.30;70.10;;;;;;5053921;28;20457;-41
2022/02/24 08:57:56;;;;;;;30.47;29.00;;;19.40;69.30;;;;;;5053581;28;21012;-41
2022/02/24 09:00:23;;;;;;;33.20;31.80;;;19.30;69.30;;;;;;5053910;28;20852;-40
2022/02/24 09:02:50;;;;;;;34.50;32.80;;;19.30;69.40;;;;;;5053755;28;20816;-43
2022/02/24 09:05:17;;;;;;;34.10;32.27;;;19.30;69.30;;;;;;5053710;28;20498;-41
2022/02/24 09:07:43;;;;;;;33.10;31.50;;;19.30;68.80;;;;;;5053480;28;20480;-42
2022/02/24 09:10:11;;;;;;;34.87;33.47;;;19.20;69.30;;;;;;5053541;28;20471;-41
2022/02/24 09:12:38;;;;;;;33.30;31.80;;;19.10;69.40;;;;;;5053703;28;20590;-41
2022/02/24 09:15:07;;;;;;;32.37;30.90;;;19.10;69.60;;;;;;5053577;28;20449;-41
2022/02/24 09:17:34;;;;;;;31.60;30.20;;;19.10;69.00;;;;;;5053564;28;20444;-41
2022/02/24 09:20:02;;;;;;;35.27;33.87;;;19.10;69.20;;;;;;5053233;28;20457;-40
2022/02/24 09:22:28;;;;;;;30.40;29.10;;;19.10;69.00;;;;;;5053599;28;20444;-40
2022/02/24 09:24:55;;;;;;;33.27;31.77;;;19.10;69.20;;;;;;5053428;28;20817;-40
2022/02/24 09:27:23;;;;;;;31.30;29.90;;;19.10;68.90;;;;;;5053308;28;20533;-41
2022/02/24 09:29:50;;;;;;;33.30;31.90;;;19.20;68.70;;;;;;5053157;28;20448;-41
2022/02/24 09:32:18;;;;;;;34.63;33.13;;;19.20;68.40;;;;;;5053236;28;20448;-41
2022/02/24 09:34:45;;;;;;;33.87;32.27;;;19.30;67.90;;;;;;5053218;28;20448;-41
2022/02/24 09:37:12;;;;;;;35.00;33.23;;;19.40;67.20;;;;;;5052429;28;20437;-40
2022/02/24 09:39:38;;;;;;;35.13;33.73;;;19.40;66.90;;;;;;5052774;28;20464;-41
2022/02/24 09:42:05;;;;;;;33.70;32.30;;;19.50;66.60;;;;;;5053168;28;20444;-41
2022/02/24 09:44:32;;;;;;;33.50;32.10;;;19.50;65.80;;;;;;5053138;28;20444;-41
2022/02/24 09:47:00;;;;;;;34.30;32.50;;;19.50;66.00;;;;;;5052905;28;20487;-41
2022/02/24 09:49:32;;;;;;;34.40;32.90;;;19.50;65.60;;;;;;5052669;28;20835;-42
2022/02/24 09:51:59;;;;;;;32.43;31.07;;;19.60;65.30;;;;;;5052913;28;20451;-41
2022/02/24 09:54:26;;;;;;;30.57;28.97;;;19.70;65.00;;;;;;5052899;28;20470;-41
2022/02/24 09:56:54;;;;;;;32.13;30.83;;;19.80;64.50;;;;;;5052762;28;20464;-42
2022/02/24 09:59:22;;;;;;;33.30;31.90;;;19.90;63.80;;;;;;5052294;28;20480;-45
2022/02/24 10:01:51;;;;;;;33.23;31.83;;;19.90;63.20;;;;;;5052680;28;20448;-41
2022/02/24 10:04:18;;;;;;;32.90;31.37;;;20.00;62.40;;;;;;5052671;28;20531;-41
2022/02/24 10:06:46;;;;;;;28.40;27.10;;;20.00;62.10;;;;;;5052517;28;20484;-41
2022/02/24 10:09:20;;;;;;;28.33;27.13;;;20.10;61.60;;;;;;5052121;28;20593;-44
2022/02/24 10:11:48;;;;;;;31.00;29.67;;;20.10;61.40;;;;;;5052586;28;20448;-41
2022/02/24 10:14:20;;;;;;;31.10;29.70;;;20.10;60.60;;;;;;5052514;28;20548;-41
2022/02/24 10:16:56;;;;;;;33.80;32.40;;;20.20;60.40;;;;;;5052427;28;20510;-42
2022/02/24 10:19:28;;;;;;;28.00;26.80;;;20.10;59.90;;;;;;5052114;28;20525;-41
2022/02/24 10:22:11;;;;;;;34.30;32.70;;;20.10;59.90;;;;;;5052330;28;20506;-41
2022/02/24 10:24:39;;;;;;;32.20;30.80;;;20.00;59.90;;;;;;5052207;28;21018;-41
2022/02/24 10:27:23;;;;;;;35.73;34.13;;;20.00;59.80;;;;;;5052011;28;20487;-43
2022/02/24 10:29:59;;;;;;;35.47;33.97;;;19.90;60.00;;;;;;5051954;28;20501;-41
2022/02/24 10:32:34;;;;;;;34.67;33.10;;;19.90;59.70;;;;;;5052096;28;20440;-41
2022/02/24 10:35:22;;;;;;;31.80;30.40;;;19.80;59.90;;;;;;5052103;28;20466;-41
2022/02/24 10:37:55;;;;;;;34.00;32.50;;;19.80;60.10;;;;;;5051801;28;20465;-41
2022/02/24 10:40:22;;;;;;;34.00;32.50;;;19.80;60.10;;;;;;5051900;28;20460;-42
2022/02/24 10:42:49;;;;;;;33.17;31.77;;;19.80;59.70;;;;;;5051997;28;20548;-42
2022/02/24 10:45:18;;;;;;;31.80;30.40;;;19.80;59.70;;;;;;5051832;28;20510;-42
2022/02/24 10:47:58;;;;;;;32.57;31.10;;;19.90;59.70;;;;;;5051587;28;20488;-43
2022/02/24 10:50:51;;;;;;;31.53;30.23;;;19.90;59.70;;;;;;5051851;28;20444;-41
2022/02/24 10:53:21;;;;;;;33.80;32.30;;;19.80;59.50;;;;;;5051818;28;20441;-41
2022/02/24 10:56:01;;;;;;;32.80;31.40;;;19.80;59.50;;;;;;5051843;28;20961;-41
2022/02/24 10:58:29;;;;;;;30.77;29.37;;;19.80;59.70;;;;;;5051449;28;20476;-41
2022/02/24 11:01:15;;;;;;;31.03;29.73;;;19.90;59.20;;;;;;5051700;28;20452;-41
2022/02/24 11:03:44;;;;;;;27.17;25.97;;;20.00;59.10;;;;;;5051753;28;20498;-41
2022/02/24 11:06:12;;;;;;;30.40;29.00;;;20.10;58.50;;;;;;5051496;28;20440;-43
2022/02/24 11:08:42;;;;;;;32.13;30.73;;;20.20;58.20;;;;;;5051259;28;20464;-41
2022/02/24 11:11:09;;;;;;;30.53;29.13;;;20.30;57.90;;;;;;5051646;28;20807;-41
2022/02/24 11:13:36;;;;;;;30.43;29.10;;;20.30;57.70;;;;;;5051527;28;20903;-41
2022/02/24 11:16:04;;;;;;;30.37;29.07;;;20.20;57.60;;;;;;5051523;28;20444;-40
2022/02/24 11:18:31;;;;;;;28.30;27.10;;;20.10;58.00;;;;;;5051024;28;20804;-41
2022/02/24 11:20:58;;;;;;;27.33;26.13;;;20.20;57.60;;;;;;5051418;28;20444;-41
2022/02/24 11:23:25;;;;;;;29.87;28.63;;;20.20;57.70;;;;;;5051477;28;20948;-41
2022/02/24 11:26:03;;;;;;;28.40;27.00;;;20.30;57.70;;;;;;5051509;28;20450;-41
2022/02/24 11:28:40;;;;;;;31.50;30.20;;;20.30;57.30;;;;;;5051210;28;20456;-41
2022/02/24 11:31:16;;;;;;;32.93;31.43;;;20.40;57.20;;;;;;5051466;28;20478;-44
2022/02/24 11:33:42;;;;;;;35.03;33.57;;;20.50;57.00;;;;;;5051398;28;20501;-41
2022/02/24 11:36:12;;;;;;;32.67;31.17;;;20.50;56.80;;;;;;5051222;28;20451;-45
2022/02/24 11:38:40;;;;;;;32.47;31.07;;;20.40;56.70;;;;;;5051169;28;20514;-43
2022/02/24 11:41:10;;;;;;;29.43;28.03;;;20.30;56.60;;;;;;5051292;28;20452;-41
2022/02/24 11:43:43;;;;;;;29.90;28.60;;;20.30;56.60;;;;;;5051301;28;20495;-42
2022/02/24 11:46:13;;;;;;;29.73;28.50;;;20.30;56.70;;;;;;5051541;28;20441;-42
2022/02/24 11:48:43;;;;;;;30.00;28.80;;;20.30;56.70;;;;;;5050999;28;20468;-41
2022/02/24 11:51:16;;;;;;;33.17;31.77;;;20.30;56.60;;;;;;5051222;28;20444;-43
2022/02/24 11:53:45;;;;;;;28.23;26.93;;;20.30;56.60;;;;;;5051339;28;20455;-42
2022/02/24 11:56:19;;;;;;;27.23;26.13;;;20.30;56.50;;;;;;5051021;28;20451;-41
2022/02/24 11:58:51;;;;;;;31.00;29.70;;;20.40;56.50;;;;;;5050623;28;20480;-40
2022/02/24 12:01:24;;;;;;;34.00;32.50;;;20.40;56.40;;;;;;5054718;28;20452;-41
2022/02/24 12:03:55;;;;;;;35.90;34.40;;;20.50;56.20;;;;;;5054938;28;20441;-40
2022/02/24 12:06:36;;;;;;;31.50;30.20;;;20.60;55.90;;;;;;5054893;28;20452;-42
2022/02/24 12:09:09;;;;;;;30.03;28.73;;;20.70;55.60;;;;;;5054620;28;20470;-43
2022/02/24 12:11:40;;;;;;;26.37;25.17;;;20.80;55.20;;;;;;5054688;28;20810;-42
2022/02/24 12:14:55;;;;;;;28.23;27.03;;;20.70;55.00;;;;;;5054745;28;20952;-41
2022/02/24 12:17:27;;;;;;;35.30;33.80;;;20.80;54.90;;;;;;5054514;28;20445;-41
2022/02/24 12:19:57;;;;;;;33.90;32.50;;;21.80;54.30;;;;;;5054401;28;20445;-41
2022/02/24 12:22:30;;;;;;;33.53;32.03;;;22.40;52.00;;;;;;5054530;28;20452;-45
2022/02/24 12:25:17;;;;;;;38.90;37.20;;;23.30;51.10;;;;;;5054556;28;20463;-41
2022/02/24 12:27:50;;;;;;;33.97;32.57;;;24.60;48.70;;;;;;5054035;28;20490;-42
2022/02/24 12:30:30;;;;;;;33.17;31.70;;;25.00;46.00;;;;;;5054417;28;20456;-41
2022/02/24 12:33:04;;;;;;;33.70;32.30;;;25.10;45.40;;;;;;5054366;28;20458;-41